createdAt,value
2019-06-27T00:02:21.883Z,3.40
2019-06-27T00:04:51.059Z,3.33
2019-06-27T00:07:20.186Z,3.30
2019-06-27T00:09:49.348Z,3.40
2019-06-27T00:12:18.406Z,3.90
2019-06-27T00:14:47.512Z,3.70
2019-06-27T00:17:16.887Z,4.40
2019-06-27T00:19:46.436Z,3.73
2019-06-27T00:22:16.043Z,3.70
2019-06-27T00:24:45.671Z,3.70
2019-06-27T00:27:14.944Z,2.80
2019-06-27T00:29:44.440Z,4.17
2019-06-27T00:32:14.112Z,3.17
2019-06-27T00:35:02.745Z,3.63
2019-06-27T00:37:32.212Z,3.47
2019-06-27T00:40:01.769Z,3.33
2019-06-27T00:42:31.295Z,3.10
2019-06-27T00:45:00.940Z,3.13
2019-06-27T00:47:30.540Z,3.90
2019-06-27T00:50:00.109Z,3.17
2019-06-27T00:52:29.758Z,3.07
2019-06-27T00:54:59.300Z,3.30
2019-06-27T00:57:28.879Z,2.97
2019-06-27T00:59:58.490Z,2.10
2019-06-27T01:02:28.100Z,3.07
2019-06-27T01:04:57.676Z,3.87
2019-06-27T01:07:27.272Z,2.97
2019-06-27T01:09:56.807Z,3.10
2019-06-27T01:12:26.309Z,3.00
2019-06-27T01:14:56.945Z,2.80
2019-06-27T01:17:26.504Z,3.00
2019-06-27T01:19:55.983Z,3.20
2019-06-27T01:22:25.371Z,3.27
2019-06-27T01:24:54.913Z,3.40
2019-06-27T01:27:29.959Z,3.20
2019-06-27T01:29:55.119Z,2.50
2019-06-27T01:32:24.242Z,2.93
2019-06-27T01:34:54.690Z,3.23
2019-06-27T01:37:23.884Z,3.20
2019-06-27T01:39:53.275Z,3.17
2019-06-27T01:42:22.819Z,2.97
2019-06-27T01:44:57.337Z,2.00
2019-06-27T01:47:26.877Z,2.10
2019-06-27T01:49:57.396Z,2.57
2019-06-27T01:52:27.018Z,2.60
2019-06-27T01:54:56.591Z,3.97
2019-06-27T01:57:25.802Z,2.97
2019-06-27T01:59:55.191Z,2.83
2019-06-27T02:02:24.825Z,2.60
2019-06-27T02:04:54.095Z,2.70
2019-06-27T02:07:23.611Z,2.33
2019-06-27T02:09:53.245Z,2.53
2019-06-27T02:12:22.933Z,2.70
2019-06-27T02:14:52.445Z,2.43
2019-06-27T02:17:22.214Z,2.87
2019-06-27T02:19:51.818Z,3.23
2019-06-27T02:22:21.835Z,3.23
2019-06-27T02:24:51.467Z,3.10
2019-06-27T02:27:20.674Z,3.60
2019-06-27T02:29:50.165Z,3.10
2019-06-27T02:32:19.701Z,3.57
2019-06-27T02:34:49.298Z,3.60
2019-06-27T02:37:18.966Z,3.43
2019-06-27T02:39:48.243Z,2.70
2019-06-27T02:42:17.390Z,3.10
2019-06-27T02:44:46.868Z,3.60
2019-06-27T02:47:16.689Z,3.63
2019-06-27T02:49:49.901Z,2.97
2019-06-27T02:52:17.620Z,2.83
2019-06-27T02:54:47.201Z,3.57
2019-06-27T02:57:16.808Z,3.30
2019-06-27T02:59:46.388Z,3.87
2019-06-27T03:02:16.022Z,4.17
2019-06-27T03:04:45.611Z,3.33
2019-06-27T03:07:15.221Z,3.63
2019-06-27T03:09:44.889Z,2.80
2019-06-27T03:12:14.495Z,3.50
2019-06-27T03:14:44.117Z,2.90
2019-06-27T03:17:13.947Z,3.90
2019-06-27T03:19:43.543Z,4.20
2019-06-27T03:22:13.142Z,4.53
2019-06-27T03:25:02.086Z,4.10
2019-06-27T03:27:31.699Z,3.53
2019-06-27T03:30:01.302Z,4.83
2019-06-27T03:32:30.586Z,4.70
2019-06-27T03:34:59.982Z,4.23
2019-06-27T03:37:29.640Z,3.70
2019-06-27T03:39:59.251Z,4.27
2019-06-27T03:42:28.854Z,3.80
2019-06-27T03:44:58.118Z,4.63
2019-06-27T03:47:27.598Z,4.50
2019-06-27T03:49:57.183Z,4.10
2019-06-27T03:52:26.435Z,5.53
2019-06-27T03:54:57.233Z,3.53
2019-06-27T03:57:26.907Z,4.07
2019-06-27T03:59:56.545Z,3.67
2019-06-27T04:02:26.226Z,3.93
2019-06-27T04:04:56.303Z,3.93
2019-06-27T04:07:25.888Z,3.40
2019-06-27T04:09:55.295Z,3.57
2019-06-27T04:12:24.837Z,3.60
2019-06-27T04:14:54.528Z,3.53
2019-06-27T04:17:25.072Z,3.63
2019-06-27T04:19:54.553Z,4.60
2019-06-27T04:22:24.151Z,4.40
2019-06-27T04:24:53.763Z,3.77
2019-06-27T04:27:23.184Z,3.73
2019-06-27T04:29:52.615Z,3.70
2019-06-27T04:32:22.207Z,3.20
2019-06-27T04:34:51.491Z,3.50
2019-06-27T04:37:20.954Z,3.40
2019-06-27T04:39:50.505Z,4.13
2019-06-27T04:42:19.772Z,3.00
2019-06-27T04:44:49.255Z,3.50
2019-06-27T04:47:18.857Z,3.20
2019-06-27T04:49:48.408Z,3.60
2019-06-27T04:52:17.680Z,3.60
2019-06-27T04:54:46.768Z,3.93
2019-06-27T04:57:15.896Z,3.50
2019-06-27T04:59:53.548Z,3.80
2019-06-27T05:02:16.818Z,3.50
2019-06-27T05:04:46.243Z,3.73
2019-06-27T05:07:15.818Z,3.70
2019-06-27T05:09:45.449Z,4.03
2019-06-27T05:12:15.051Z,3.13
2019-06-27T05:14:44.696Z,3.70
2019-06-27T05:17:14.367Z,2.93
2019-06-27T05:19:44.024Z,3.97
2019-06-27T05:22:13.624Z,3.80
2019-06-27T05:24:43.243Z,4.37
2019-06-27T05:27:12.842Z,3.17
2019-06-27T05:29:42.456Z,3.83
2019-06-27T05:32:11.982Z,3.03
2019-06-27T05:34:41.620Z,6.07
2019-06-27T05:37:11.250Z,3.90
2019-06-27T05:39:40.849Z,3.10
2019-06-27T05:42:10.549Z,3.90
2019-06-27T05:44:40.244Z,3.47
2019-06-27T05:47:09.754Z,3.60
2019-06-27T05:49:38.968Z,3.70
2019-06-27T05:52:08.355Z,3.80
2019-06-27T05:54:37.560Z,4.00
2019-06-27T05:57:07.062Z,3.73
2019-06-27T05:59:36.624Z,5.10
2019-06-27T06:02:06.614Z,4.40
2019-06-27T06:04:35.924Z,3.50
2019-06-27T06:07:05.446Z,2.73
2019-06-27T06:09:35.021Z,3.10
2019-06-27T06:12:04.747Z,3.67
2019-06-27T06:14:34.322Z,3.50
2019-06-27T06:17:04.145Z,3.47
2019-06-27T06:19:33.703Z,4.00
2019-06-27T06:22:03.613Z,3.17
2019-06-27T06:24:33.194Z,3.77
2019-06-27T06:27:02.832Z,4.23
2019-06-27T06:29:32.429Z,3.53
2019-06-27T06:32:02.039Z,3.80
2019-06-27T06:34:31.690Z,2.60
2019-06-27T06:37:03.747Z,2.40
2019-06-27T06:39:33.295Z,3.20
2019-06-27T06:42:02.913Z,3.67
2019-06-27T06:44:32.706Z,3.67
2019-06-27T06:47:02.399Z,2.83
2019-06-27T06:49:31.955Z,3.70
2019-06-27T06:52:01.507Z,4.00
2019-06-27T06:54:31.040Z,3.87
2019-06-27T06:57:01.158Z,3.77
2019-06-27T06:59:30.379Z,2.80
2019-06-27T07:01:59.836Z,3.20
2019-06-27T07:04:29.358Z,3.20
2019-06-27T07:06:58.980Z,3.27
2019-06-27T07:09:28.591Z,3.13
2019-06-27T07:11:58.246Z,3.50
2019-06-27T07:14:27.759Z,3.60
2019-06-27T07:16:56.976Z,2.90
2019-06-27T07:19:26.439Z,3.27
2019-06-27T07:21:57.737Z,2.93
2019-06-27T07:24:26.945Z,3.30
2019-06-27T07:26:56.482Z,3.10
2019-06-27T07:29:26.127Z,2.70
2019-06-27T07:31:55.789Z,2.80
2019-06-27T07:34:25.404Z,2.73
2019-06-27T07:36:54.963Z,2.90
2019-06-27T07:39:24.569Z,3.50
2019-06-27T07:41:53.963Z,3.40
2019-06-27T07:44:23.091Z,3.03
2019-06-27T07:46:52.597Z,3.70
2019-06-27T07:49:22.245Z,2.60
2019-06-27T07:51:51.812Z,3.00
2019-06-27T07:54:21.079Z,2.87
2019-06-27T07:56:50.233Z,3.50
2019-06-27T07:59:19.832Z,4.13
2019-06-27T08:01:49.434Z,3.23
2019-06-27T08:04:19.031Z,4.07
2019-06-27T08:06:48.658Z,2.90
2019-06-27T08:09:19.127Z,2.83
2019-06-27T08:11:48.828Z,3.40
2019-06-27T08:14:18.514Z,3.00
2019-06-27T08:16:48.197Z,2.97
2019-06-27T08:19:17.757Z,3.43
2019-06-27T08:21:47.689Z,2.97
2019-06-27T08:24:17.382Z,3.40
2019-06-27T08:26:46.973Z,2.57
2019-06-27T08:29:16.271Z,2.77
2019-06-27T08:31:51.504Z,2.80
2019-06-27T08:34:16.967Z,3.40
2019-06-27T08:36:46.429Z,3.77
2019-06-27T08:39:16.209Z,2.63
2019-06-27T08:41:45.877Z,2.37
2019-06-27T08:44:15.423Z,3.83
2019-06-27T08:46:45.125Z,3.57
2019-06-27T08:49:14.742Z,3.07
2019-06-27T08:51:44.336Z,4.00
2019-06-27T08:54:13.664Z,3.83
2019-06-27T08:56:43.111Z,3.43
2019-06-27T08:59:12.728Z,2.70
2019-06-27T09:01:42.585Z,3.20
2019-06-27T09:04:12.310Z,3.03
2019-06-27T09:06:42.051Z,3.70
2019-06-27T09:09:11.633Z,2.57
2019-06-27T09:11:41.321Z,3.03
2019-06-27T09:14:10.926Z,3.63
2019-06-27T09:16:40.675Z,3.00
2019-06-27T09:19:10.277Z,2.90
2019-06-27T09:21:39.837Z,2.77
2019-06-27T09:24:09.465Z,2.57
2019-06-27T09:26:38.971Z,2.63
2019-06-27T09:29:08.466Z,2.83
2019-06-27T09:31:38.758Z,2.40
2019-06-27T09:34:08.664Z,2.37
2019-06-27T09:36:38.181Z,2.13
2019-06-27T09:39:07.895Z,2.33
2019-06-27T09:41:37.671Z,3.37
2019-06-27T09:44:07.265Z,2.37
2019-06-27T09:46:36.904Z,3.50
2019-06-27T09:49:06.221Z,3.40
2019-06-27T09:51:35.771Z,3.47
2019-06-27T09:54:04.969Z,2.60
2019-06-27T09:56:34.514Z,3.13
2019-06-27T09:59:04.172Z,2.93
2019-06-27T10:01:33.856Z,2.70
2019-06-27T10:04:03.147Z,2.43
2019-06-27T10:06:32.592Z,2.13
2019-06-27T10:09:01.875Z,2.63
2019-06-27T10:11:31.357Z,2.40
2019-06-27T10:14:01.052Z,2.50
2019-06-27T10:16:30.771Z,3.07
2019-06-27T10:19:00.355Z,2.30
2019-06-27T10:21:48.948Z,3.10
2019-06-27T10:24:18.413Z,2.70
2019-06-27T10:26:48.237Z,3.07
2019-06-27T10:29:17.812Z,2.97
2019-06-27T10:31:47.200Z,3.10
2019-06-27T10:34:16.386Z,3.73
2019-06-27T10:36:45.728Z,3.33
2019-06-27T10:39:14.787Z,3.87
2019-06-27T10:41:43.971Z,2.60
2019-06-27T10:44:13.102Z,2.83
2019-06-27T10:46:42.690Z,2.43
2019-06-27T10:49:12.926Z,3.53
2019-06-27T10:51:43.899Z,3.20
2019-06-27T10:54:13.344Z,3.30
2019-06-27T10:56:42.831Z,3.33
2019-06-27T10:59:12.078Z,3.40
2019-06-27T11:01:41.170Z,3.30
2019-06-27T11:04:10.325Z,3.50
2019-06-27T11:06:39.431Z,4.00
2019-06-27T11:09:08.570Z,3.17
2019-06-27T11:11:37.757Z,2.80
2019-06-27T11:14:07.223Z,2.57
2019-06-27T11:16:36.444Z,2.37
2019-06-27T11:19:05.533Z,3.43
2019-06-27T11:21:34.724Z,3.63
2019-06-27T11:24:03.941Z,2.80
2019-06-27T11:26:33.177Z,4.23
2019-06-27T11:29:02.447Z,3.37
2019-06-27T11:31:31.852Z,3.57
2019-06-27T11:34:01.300Z,4.07
2019-06-27T11:36:30.500Z,3.20
2019-06-27T11:38:59.673Z,2.93
2019-06-27T11:41:28.821Z,5.37
2019-06-27T11:43:58.007Z,3.87
2019-06-27T11:46:27.062Z,3.63
2019-06-27T11:48:56.344Z,4.27
2019-06-27T11:51:25.410Z,4.70
2019-06-27T11:53:54.743Z,3.07
2019-06-27T11:56:23.803Z,4.17
2019-06-27T11:58:52.915Z,3.97
2019-06-27T12:01:22.042Z,4.27
2019-06-27T12:03:51.198Z,3.83
2019-06-27T12:06:20.396Z,3.50
2019-06-27T12:08:49.481Z,3.50
2019-06-27T12:11:18.624Z,2.70
2019-06-27T12:13:47.790Z,3.53
2019-06-27T12:16:16.917Z,3.20
2019-06-27T12:18:46.387Z,3.20
2019-06-27T12:21:15.894Z,2.73
2019-06-27T12:23:45.436Z,2.90
2019-06-27T12:26:15.027Z,3.50
2019-06-27T12:28:44.631Z,3.10
2019-06-27T12:31:20.615Z,3.20
2019-06-27T12:33:46.378Z,2.97
2019-06-27T12:36:15.974Z,3.27
2019-06-27T12:38:45.297Z,2.60
2019-06-27T12:41:14.768Z,2.60
2019-06-27T12:43:44.372Z,2.20
2019-06-27T12:46:14.030Z,2.57
2019-06-27T12:48:43.680Z,2.50
2019-06-27T12:51:13.850Z,2.35
2019-06-27T12:53:43.967Z,2.62
2019-06-27T12:56:13.878Z,3.07
2019-06-27T12:58:44.061Z,2.70
2019-06-27T13:01:13.947Z,2.30
2019-06-27T13:03:43.540Z,2.27
2019-06-27T13:06:13.092Z,2.30
2019-06-27T13:08:43.279Z,2.55
2019-06-27T13:11:12.890Z,2.33
2019-06-27T13:13:42.480Z,2.40
2019-06-27T13:16:12.115Z,2.42
2019-06-27T13:18:41.720Z,2.45
2019-06-27T13:21:11.892Z,2.15
2019-06-27T13:23:41.536Z,2.52
2019-06-27T13:26:11.066Z,2.20
2019-06-27T13:28:40.782Z,1.70
2019-06-27T13:31:10.400Z,2.45
2019-06-27T13:33:39.946Z,2.47
2019-06-27T13:36:09.740Z,2.17
2019-06-27T13:38:39.974Z,2.25
2019-06-27T13:41:09.902Z,1.90
2019-06-27T13:43:39.711Z,2.40
2019-06-27T13:46:11.171Z,2.05
2019-06-27T13:48:40.860Z,1.80
2019-06-27T13:51:10.818Z,2.22
2019-06-27T13:53:40.988Z,1.55
2019-06-27T13:56:11.032Z,1.57
2019-06-27T13:58:41.245Z,2.15
2019-06-27T14:01:11.168Z,1.90
2019-06-27T14:03:49.362Z,1.80
2019-06-27T14:06:12.866Z,1.60
2019-06-27T14:08:43.030Z,1.95
2019-06-27T14:11:12.857Z,2.33
2019-06-27T14:13:43.005Z,2.33
2019-06-27T14:16:12.925Z,3.00
2019-06-27T14:18:44.112Z,2.30
2019-06-27T14:21:13.766Z,1.97
2019-06-27T14:23:43.498Z,2.30
2019-06-27T14:26:13.373Z,1.93
2019-06-27T14:28:43.496Z,1.60
2019-06-27T14:31:13.330Z,1.77
2019-06-27T14:33:43.103Z,2.37
2019-06-27T14:36:13.030Z,1.50
2019-06-27T14:38:42.900Z,1.33
2019-06-27T14:41:13.125Z,1.80
2019-06-27T14:43:42.771Z,1.42
2019-06-27T14:46:12.627Z,1.60
2019-06-27T14:48:42.439Z,1.83
2019-06-27T14:51:11.959Z,1.80
2019-06-27T14:53:42.701Z,1.73
2019-06-27T14:56:12.350Z,2.42
2019-06-27T14:58:41.945Z,1.80
2019-06-27T15:01:11.456Z,1.87
2019-06-27T15:03:41.163Z,1.87
2019-06-27T15:06:12.502Z,1.60
2019-06-27T15:08:42.486Z,1.90
2019-06-27T15:11:12.067Z,2.00
2019-06-27T15:13:41.890Z,1.50
2019-06-27T15:16:12.562Z,2.25
2019-06-27T15:18:42.296Z,1.80
2019-06-27T15:21:12.074Z,1.60
2019-06-27T15:23:41.664Z,1.92
2019-06-27T15:26:11.462Z,2.20
2019-06-27T15:28:41.041Z,2.15
2019-06-27T15:31:10.952Z,1.87
2019-06-27T15:33:40.652Z,1.92
2019-06-27T15:36:10.247Z,1.62
2019-06-27T15:38:40.010Z,1.92
2019-06-27T15:41:09.936Z,1.72
2019-06-27T15:43:39.778Z,1.67
2019-06-27T15:46:21.537Z,2.00
2019-06-27T15:48:51.156Z,1.40
2019-06-27T15:51:21.278Z,1.72
2019-06-27T15:53:51.409Z,1.50
2019-06-27T15:56:21.210Z,1.37
2019-06-27T15:58:50.907Z,1.87
2019-06-27T16:01:21.226Z,1.65
2019-06-27T16:03:50.960Z,1.95
2019-06-27T16:06:20.914Z,2.00
2019-06-27T16:08:50.540Z,1.82
2019-06-27T16:11:20.170Z,1.72
2019-06-27T16:13:49.763Z,1.80
2019-06-27T16:16:19.282Z,1.60
2019-06-27T16:18:49.520Z,2.17
2019-06-27T16:21:19.475Z,1.80
2019-06-27T16:23:49.683Z,1.40
2019-06-27T16:26:19.540Z,1.70
2019-06-27T16:28:49.697Z,1.67
2019-06-27T16:31:19.504Z,1.50
2019-06-27T16:33:49.592Z,1.52
2019-06-27T16:36:25.237Z,1.50
2019-06-27T16:38:51.646Z,2.37
2019-06-27T16:41:21.459Z,1.60
2019-06-27T16:43:51.643Z,2.37
2019-06-27T16:46:21.618Z,1.80
2019-06-27T16:48:51.876Z,1.62
2019-06-27T16:51:21.944Z,1.42
2019-06-27T16:53:51.542Z,1.20
2019-06-27T16:56:21.188Z,1.62
2019-06-27T16:58:50.840Z,1.12
2019-06-27T17:01:20.637Z,2.60
2019-06-27T17:03:51.671Z,1.40
2019-06-27T17:06:21.825Z,1.42
2019-06-27T17:08:51.339Z,1.60
2019-06-27T17:11:20.918Z,1.30
2019-06-27T17:13:50.504Z,1.70
2019-06-27T17:16:22.277Z,1.40
2019-06-27T17:18:51.447Z,1.40
2019-06-27T17:21:22.919Z,1.70
2019-06-27T17:23:52.441Z,1.33
2019-06-27T17:26:22.009Z,2.17
2019-06-27T17:28:51.589Z,1.70
2019-06-27T17:31:21.229Z,1.47
2019-06-27T17:33:51.393Z,1.87
2019-06-27T17:36:21.266Z,1.87
2019-06-27T17:38:51.348Z,2.00
2019-06-27T17:41:21.373Z,2.33
2019-06-27T17:43:52.501Z,2.22
2019-06-27T17:46:22.453Z,1.70
2019-06-27T17:48:52.635Z,1.52
2019-06-27T17:51:22.583Z,1.87
2019-06-27T17:53:52.191Z,2.27
2019-06-27T17:56:21.838Z,2.20
2019-06-27T17:58:51.817Z,2.77
2019-06-27T18:01:21.460Z,1.87
2019-06-27T18:03:50.668Z,2.47
2019-06-27T18:06:20.083Z,2.10
2019-06-27T18:08:49.706Z,2.30
2019-06-27T18:11:19.288Z,1.80
2019-06-27T18:13:48.800Z,2.10
2019-06-27T18:16:18.419Z,2.63
2019-06-27T18:18:48.030Z,2.40
2019-06-27T18:21:17.756Z,2.20
2019-06-27T18:23:47.539Z,2.57
2019-06-27T18:26:17.071Z,1.97
2019-06-27T18:28:46.587Z,3.20
2019-06-27T18:31:16.117Z,3.17
2019-06-27T18:33:45.787Z,2.73
2019-06-27T18:36:15.567Z,3.70
2019-06-27T18:38:45.205Z,2.77
2019-06-27T18:41:14.747Z,2.70
2019-06-27T18:43:44.283Z,2.50
2019-06-27T18:46:13.852Z,3.30
2019-06-27T18:48:43.477Z,2.90
2019-06-27T18:51:13.045Z,2.90
2019-06-27T18:53:42.609Z,2.90
2019-06-27T18:56:12.139Z,3.23
2019-06-27T18:58:41.724Z,2.63
2019-06-27T19:01:11.257Z,3.03
2019-06-27T19:03:41.001Z,3.60
2019-06-27T19:06:10.643Z,2.70
2019-06-27T19:08:40.339Z,2.50
2019-06-27T19:11:09.924Z,2.90
2019-06-27T19:13:39.223Z,3.27
2019-06-27T19:16:08.643Z,3.10
2019-06-27T19:18:49.048Z,2.63
2019-06-27T19:21:23.237Z,2.70
2019-06-27T19:23:54.600Z,2.77
2019-06-27T19:26:24.186Z,2.97
2019-06-27T19:28:54.972Z,2.73
2019-06-27T19:31:24.224Z,4.00
2019-06-27T19:33:53.662Z,5.03
2019-06-27T19:36:22.925Z,4.57
2019-06-27T19:38:52.407Z,3.40
2019-06-27T19:41:21.680Z,3.00
2019-06-27T19:43:51.211Z,2.30
2019-06-27T19:46:20.741Z,3.23
2019-06-27T19:48:50.354Z,2.87
2019-06-27T19:51:19.952Z,3.10
2019-06-27T19:53:49.544Z,3.13
2019-06-27T19:56:20.066Z,2.80
2019-06-27T19:58:49.680Z,3.47
2019-06-27T20:01:19.010Z,3.03
2019-06-27T20:03:48.438Z,3.20
2019-06-27T20:06:18.046Z,3.97
2019-06-27T20:08:47.267Z,3.43
2019-06-27T20:11:16.751Z,3.50
2019-06-27T20:13:46.024Z,3.43
2019-06-27T20:16:15.133Z,3.70
2019-06-27T20:18:44.578Z,3.50
2019-06-27T20:21:14.099Z,2.80
2019-06-27T20:23:43.807Z,3.57
2019-06-27T20:26:13.451Z,3.83
2019-06-27T20:28:43.074Z,3.10
2019-06-27T20:31:12.912Z,3.70
2019-06-27T20:33:42.526Z,2.30
2019-06-27T20:36:12.116Z,2.97
2019-06-27T20:38:41.691Z,3.03
2019-06-27T20:41:10.758Z,3.10
2019-06-27T20:43:39.807Z,4.00
2019-06-27T20:46:09.231Z,3.40
2019-06-27T20:48:38.507Z,3.57
2019-06-27T20:51:07.687Z,3.33
2019-06-27T20:53:36.807Z,3.40
2019-06-27T20:56:05.943Z,3.50
2019-06-27T20:58:35.603Z,3.73
2019-06-27T21:01:05.383Z,3.53
2019-06-27T21:03:34.572Z,4.20
2019-06-27T21:06:03.861Z,3.73
2019-06-27T21:08:33.025Z,3.40
2019-06-27T21:11:02.268Z,3.30
2019-06-27T21:13:31.459Z,3.70
2019-06-27T21:16:00.611Z,3.40
2019-06-27T21:18:29.757Z,3.83
2019-06-27T21:20:58.849Z,3.80
2019-06-27T21:23:28.942Z,3.50
2019-06-27T21:25:58.294Z,3.60
2019-06-27T21:28:27.425Z,3.50
2019-06-27T21:30:56.516Z,4.43
2019-06-27T21:33:25.668Z,3.60
2019-06-27T21:35:55.064Z,3.40
2019-06-27T21:38:24.188Z,3.90
2019-06-27T21:40:53.352Z,4.23
2019-06-27T21:43:22.551Z,3.60
2019-06-27T21:45:51.648Z,4.10
2019-06-27T21:48:20.722Z,3.53
2019-06-27T21:50:49.858Z,3.80
2019-06-27T21:53:19.110Z,4.60
2019-06-27T21:55:48.275Z,4.10
2019-06-27T21:58:17.422Z,3.87
2019-06-27T22:00:46.650Z,4.00
2019-06-27T22:03:15.834Z,3.93
2019-06-27T22:05:45.010Z,4.00
2019-06-27T22:08:14.208Z,4.67
2019-06-27T22:10:43.458Z,3.53
2019-06-27T22:13:12.632Z,4.17
2019-06-27T22:15:41.735Z,4.37
2019-06-27T22:18:10.785Z,4.00
2019-06-27T22:20:39.895Z,3.77
2019-06-27T22:23:09.399Z,3.57
2019-06-27T22:25:40.729Z,4.23
2019-06-27T22:28:09.549Z,3.90
2019-06-27T22:30:38.741Z,3.90
2019-06-27T22:33:07.854Z,4.20
2019-06-27T22:35:37.249Z,3.50
2019-06-27T22:38:24.192Z,4.17
2019-06-27T22:41:11.174Z,3.70
2019-06-27T22:43:57.775Z,4.10
2019-06-27T22:46:45.287Z,3.73
2019-06-27T22:49:14.020Z,4.57
2019-06-27T22:51:48.472Z,4.30
2019-06-27T22:54:19.159Z,4.00
2019-06-27T22:56:48.244Z,4.27
2019-06-27T22:59:17.313Z,4.10
2019-06-27T23:01:46.470Z,4.40
2019-06-27T23:04:15.524Z,3.53
2019-06-27T23:06:44.601Z,4.33
2019-06-27T23:09:13.993Z,4.50
2019-06-27T23:11:43.383Z,5.07
2019-06-27T23:14:12.591Z,4.43
2019-06-27T23:16:42.072Z,4.03
2019-06-27T23:19:11.740Z,4.67
2019-06-27T23:21:40.884Z,4.67
2019-06-27T23:24:10.097Z,4.40
2019-06-27T23:26:39.149Z,4.00
2019-06-27T23:29:08.266Z,4.77
2019-06-27T23:31:37.452Z,4.13
2019-06-27T23:34:06.537Z,4.30
2019-06-27T23:36:35.989Z,3.87
2019-06-27T23:39:05.350Z,4.33
2019-06-27T23:41:34.427Z,4.17
2019-06-27T23:44:03.510Z,4.50
2019-06-27T23:46:39.913Z,4.83
2019-06-27T23:49:10.173Z,5.50
2019-06-27T23:51:39.614Z,6.30
2019-06-27T23:54:08.696Z,6.33
2019-06-27T23:56:37.834Z,4.97
2019-06-27T23:59:07.081Z,4.70
